createdAt,value
2023-03-06T00:00:05.268Z,1010.63
2023-03-06T00:00:36.693Z,1010.63
2023-03-06T00:01:07.725Z,1010.63
2023-03-06T00:01:40.524Z,1010.43
2023-03-06T00:02:11.813Z,1010.43
2023-03-06T00:02:44.760Z,1010.73
2023-03-06T00:03:15.675Z,1010.73
2023-03-06T00:03:32.022Z,1010.53
2023-03-06T00:04:03.922Z,1010.53
2023-03-06T00:04:35.802Z,1010.43
2023-03-06T00:05:08.196Z,1010.43
2023-03-06T00:05:39.756Z,1010.63
2023-03-06T00:06:12.818Z,1010.63
2023-03-06T00:06:43.827Z,1010.53
2023-03-06T00:07:16.842Z,1010.53
2023-03-06T00:07:47.777Z,1010.43
2023-03-06T00:08:20.654Z,1010.43
2023-03-06T00:08:51.867Z,1010.53
2023-03-06T00:09:24.542Z,1010.53
2023-03-06T00:09:55.784Z,1010.33
2023-03-06T00:10:29.086Z,1010.33
2023-03-06T00:10:59.972Z,1010.43
2023-03-06T00:11:32.538Z,1010.53
2023-03-06T00:12:03.836Z,1010.53
2023-03-06T00:12:36.674Z,1010.53
2023-03-06T00:13:07.765Z,1010.53
2023-03-06T00:13:40.478Z,1010.53
2023-03-06T00:14:11.933Z,1010.53
2023-03-06T00:14:44.655Z,1010.53
2023-03-06T00:15:16.738Z,1010.53
2023-03-06T00:15:32.112Z,1010.43
2023-03-06T00:16:03.792Z,1010.43
2023-03-06T00:16:35.871Z,1010.43
2023-03-06T00:17:07.978Z,1010.43
2023-03-06T00:17:39.848Z,1010.53
2023-03-06T00:18:12.462Z,1010.53
2023-03-06T00:18:43.879Z,1010.43
2023-03-06T00:19:16.582Z,1010.43
2023-03-06T00:19:47.711Z,1010.73
2023-03-06T00:20:21.053Z,1010.73
2023-03-06T00:20:51.829Z,1010.53
2023-03-06T00:21:24.589Z,1010.53
2023-03-06T00:21:55.769Z,1010.73
2023-03-06T00:22:28.531Z,1010.73
2023-03-06T00:22:59.845Z,1010.33
2023-03-06T00:23:32.425Z,1010.23
2023-03-06T00:24:03.793Z,1010.23
2023-03-06T00:24:36.671Z,1010.33
2023-03-06T00:25:08.026Z,1010.33
2023-03-06T00:25:42.466Z,1010.43
2023-03-06T00:26:11.809Z,1010.43
2023-03-06T00:26:44.710Z,1010.33
2023-03-06T00:27:15.856Z,1010.33
2023-03-06T00:27:48.778Z,1010.43
2023-03-06T00:28:19.852Z,1010.43
2023-03-06T00:28:52.563Z,1010.33
2023-03-06T00:29:23.712Z,1010.33
2023-03-06T00:29:56.560Z,1010.43
2023-03-06T00:30:28.939Z,1010.43
2023-03-06T00:31:00.671Z,1010.33
2023-03-06T00:31:31.867Z,1010.33
2023-03-06T00:32:04.666Z,1010.33
2023-03-06T00:32:35.864Z,1010.23
2023-03-06T00:33:08.589Z,1010.23
2023-03-06T00:33:39.812Z,1010.23
2023-03-06T00:34:12.605Z,1010.23
2023-03-06T00:34:43.841Z,1010.33
2023-03-06T00:35:17.905Z,1010.33
2023-03-06T00:35:47.928Z,1010.23
2023-03-06T00:36:20.515Z,1010.23
2023-03-06T00:36:51.809Z,1010.12
2023-03-06T00:37:24.840Z,1010.12
2023-03-06T00:37:56.010Z,1010.33
2023-03-06T00:38:29.455Z,1010.33
2023-03-06T00:38:59.849Z,1010.33
2023-03-06T00:39:32.694Z,1010.12
2023-03-06T00:40:04.437Z,1010.12
2023-03-06T00:40:40.232Z,1010.12
2023-03-06T00:41:07.807Z,1010.12
2023-03-06T00:41:39.793Z,1010.23
2023-03-06T00:42:12.613Z,1010.23
2023-03-06T00:42:43.760Z,1010.23
2023-03-06T00:43:16.715Z,1010.23
2023-03-06T00:43:47.785Z,1010.12
2023-03-06T00:44:20.622Z,1010.12
2023-03-06T00:44:51.840Z,1010.02
2023-03-06T00:45:25.649Z,1010.02
2023-03-06T00:45:56.049Z,1010.02
2023-03-06T00:46:28.585Z,1010.02
2023-03-06T00:47:00.033Z,1010.02
2023-03-06T00:47:32.819Z,1010.02
2023-03-06T00:48:03.725Z,1010.02
2023-03-06T00:48:36.914Z,1010.12
2023-03-06T00:49:07.660Z,1010.12
2023-03-06T00:49:40.536Z,1009.92
2023-03-06T00:50:12.146Z,1009.92
2023-03-06T00:50:44.740Z,1010.12
2023-03-06T00:51:15.762Z,1010.12
2023-03-06T00:51:48.677Z,1010.12
2023-03-06T00:52:19.948Z,1010.12
2023-03-06T00:52:52.711Z,1010.02
2023-03-06T00:53:23.779Z,1010.02
2023-03-06T00:53:56.659Z,1010.02
2023-03-06T00:54:27.876Z,1010.02
2023-03-06T00:55:16.240Z,1010.02
2023-03-06T00:55:32.742Z,1009.82
2023-03-06T00:56:03.914Z,1009.82
2023-03-06T00:56:36.782Z,1010.02
2023-03-06T00:57:07.855Z,1010.02
2023-03-06T00:57:40.746Z,1009.92
2023-03-06T00:58:11.786Z,1009.92
2023-03-06T00:58:44.561Z,1010.12
2023-03-06T00:59:15.902Z,1010.12
2023-03-06T00:59:48.783Z,1009.72
2023-03-06T01:00:21.480Z,1009.72
2023-03-06T01:00:52.702Z,1010.02
2023-03-06T01:01:23.928Z,1010.02
2023-03-06T01:01:56.622Z,1009.92
2023-03-06T01:02:27.853Z,1009.92
2023-03-06T01:03:00.825Z,1009.92
2023-03-06T01:03:31.931Z,1009.82
2023-03-06T01:04:05.551Z,1009.82
2023-03-06T01:04:35.953Z,1009.62
2023-03-06T01:05:09.081Z,1009.62
2023-03-06T01:05:39.837Z,1009.92
2023-03-06T01:06:12.621Z,1009.92
2023-03-06T01:06:43.884Z,1009.82
2023-03-06T01:07:17.091Z,1009.82
2023-03-06T01:07:47.835Z,1009.92
2023-03-06T01:08:20.751Z,1009.92
2023-03-06T01:08:51.872Z,1009.82
2023-03-06T01:09:24.643Z,1009.82
2023-03-06T01:09:55.785Z,1009.82
2023-03-06T01:10:29.078Z,1009.82
2023-03-06T01:11:00.025Z,1009.72
2023-03-06T01:11:32.658Z,1009.82
2023-03-06T01:12:03.903Z,1009.82
2023-03-06T01:12:37.012Z,1009.72
2023-03-06T01:13:07.843Z,1009.72
2023-03-06T01:13:40.524Z,1009.82
2023-03-06T01:14:11.906Z,1009.82
2023-03-06T01:14:44.492Z,1009.72
2023-03-06T01:15:16.616Z,1009.72
2023-03-06T01:15:48.890Z,1009.62
2023-03-06T01:16:20.065Z,1009.62
2023-03-06T01:16:52.619Z,1009.51
2023-03-06T01:17:23.864Z,1009.51
2023-03-06T01:17:57.614Z,1009.62
2023-03-06T01:18:27.734Z,1009.62
2023-03-06T01:19:00.754Z,1009.72
2023-03-06T01:19:31.847Z,1009.62
2023-03-06T01:20:05.051Z,1009.62
2023-03-06T01:20:35.817Z,1009.72
2023-03-06T01:21:11.623Z,1009.72
2023-03-06T01:21:39.897Z,1009.31
2023-03-06T01:22:12.590Z,1009.31
2023-03-06T01:22:43.884Z,1009.51
2023-03-06T01:23:16.671Z,1009.51
2023-03-06T01:23:47.644Z,1009.51
2023-03-06T01:24:20.571Z,1009.51
2023-03-06T01:24:51.900Z,1009.51
2023-03-06T01:25:24.933Z,1009.51
2023-03-06T01:25:55.856Z,1009.62
2023-03-06T01:26:28.648Z,1009.62
2023-03-06T01:26:59.915Z,1009.72
2023-03-06T01:27:32.620Z,1009.62
2023-03-06T01:28:03.942Z,1009.62
2023-03-06T01:28:36.602Z,1009.51
2023-03-06T01:29:07.853Z,1009.51
2023-03-06T01:29:40.770Z,1009.62
2023-03-06T01:30:12.694Z,1009.62
2023-03-06T01:30:45.073Z,1009.51
2023-03-06T01:31:15.758Z,1009.51
2023-03-06T01:31:48.710Z,1009.51
2023-03-06T01:32:19.824Z,1009.51
2023-03-06T01:32:52.960Z,1009.41
2023-03-06T01:33:23.735Z,1009.41
2023-03-06T01:33:56.738Z,1009.62
2023-03-06T01:34:27.880Z,1009.62
2023-03-06T01:35:01.853Z,1009.41
2023-03-06T01:35:31.878Z,1009.72
2023-03-06T01:36:04.755Z,1009.72
2023-03-06T01:36:35.881Z,1009.41
2023-03-06T01:37:08.740Z,1009.41
2023-03-06T01:37:39.774Z,1009.41
2023-03-06T01:38:12.711Z,1009.41
2023-03-06T01:38:43.751Z,1009.62
2023-03-06T01:39:16.765Z,1009.62
2023-03-06T01:39:47.909Z,1009.41
2023-03-06T01:40:21.079Z,1009.41
2023-03-06T01:40:51.758Z,1009.51
2023-03-06T01:41:24.700Z,1009.51
2023-03-06T01:41:56.014Z,1009.51
2023-03-06T01:42:28.674Z,1009.51
2023-03-06T01:42:59.818Z,1009.51
2023-03-06T01:43:32.753Z,1009.41
2023-03-06T01:44:03.929Z,1009.41
2023-03-06T01:44:36.689Z,1009.41
2023-03-06T01:45:08.758Z,1009.41
2023-03-06T01:45:41.851Z,1009.31
2023-03-06T01:46:11.930Z,1009.31
2023-03-06T01:46:51.482Z,1009.41
2023-03-06T01:47:15.965Z,1009.41
2023-03-06T01:47:48.010Z,1009.21
2023-03-06T01:48:20.494Z,1009.21
2023-03-06T01:48:51.881Z,1009.21
2023-03-06T01:49:25.844Z,1009.21
2023-03-06T01:49:55.745Z,1009.21
2023-03-06T01:50:29.225Z,1009.21
2023-03-06T01:50:59.784Z,1009.21
2023-03-06T01:51:32.739Z,1009.21
2023-03-06T01:52:03.787Z,1009.21
2023-03-06T01:52:36.856Z,1009.21
2023-03-06T01:53:07.765Z,1009.21
2023-03-06T01:53:40.726Z,1009.21
2023-03-06T01:54:11.746Z,1009.21
2023-03-06T01:54:44.796Z,1009.31
2023-03-06T01:55:16.238Z,1009.31
2023-03-06T01:55:48.788Z,1009.31
2023-03-06T01:56:19.876Z,1009.31
2023-03-06T01:56:56.760Z,1009.31
2023-03-06T01:57:23.762Z,1009.31
2023-03-06T01:57:55.936Z,1009.21
2023-03-06T01:58:27.817Z,1009.21
2023-03-06T01:58:59.962Z,1009.21
2023-03-06T01:59:31.880Z,1009.04
2023-03-06T02:00:05.334Z,1009.04
2023-03-06T02:00:35.932Z,1009.04
2023-03-06T02:01:07.906Z,1009.04
2023-03-06T02:01:41.356Z,1009.21
2023-03-06T02:02:12.082Z,1009.21
2023-03-06T02:02:44.889Z,1009.11
2023-03-06T02:03:15.799Z,1009.11
2023-03-06T02:03:48.747Z,1009.11
2023-03-06T02:04:19.959Z,1009.11
2023-03-06T02:04:55.328Z,1009.21
2023-03-06T02:05:24.254Z,1009.21
2023-03-06T02:05:56.919Z,1008.94
2023-03-06T02:06:27.950Z,1008.94
2023-03-06T02:07:00.509Z,1009.31
2023-03-06T02:07:31.897Z,1009.11
2023-03-06T02:08:04.780Z,1009.11
2023-03-06T02:08:35.783Z,1009.11
2023-03-06T02:09:08.652Z,1009.11
2023-03-06T02:09:39.971Z,1009.11
2023-03-06T02:10:28.498Z,1009.11
2023-03-06T02:11:00.126Z,1008.94
2023-03-06T02:11:31.961Z,1008.84
2023-03-06T02:12:11.717Z,1008.84
2023-03-06T02:12:36.010Z,1009.11
2023-03-06T02:13:07.853Z,1009.11
2023-03-06T02:13:40.624Z,1009.21
2023-03-06T02:14:11.977Z,1009.21
2023-03-06T02:14:44.768Z,1009.11
2023-03-06T02:15:16.640Z,1009.11
2023-03-06T02:15:32.195Z,1009.04
2023-03-06T02:16:04.761Z,1009.04
2023-03-06T02:16:35.907Z,1008.94
2023-03-06T02:17:08.945Z,1008.94
2023-03-06T02:17:39.878Z,1008.84
2023-03-06T02:18:12.778Z,1008.84
2023-03-06T02:18:43.923Z,1008.84
2023-03-06T02:19:18.634Z,1008.84
2023-03-06T02:19:47.753Z,1009.11
2023-03-06T02:20:20.970Z,1009.11
2023-03-06T02:20:51.837Z,1009.04
2023-03-06T02:21:24.611Z,1009.04
2023-03-06T02:21:55.887Z,1009.04
2023-03-06T02:22:28.949Z,1009.04
2023-03-06T02:22:59.916Z,1009.04
2023-03-06T02:23:35.404Z,1009.11
2023-03-06T02:24:03.775Z,1009.11
2023-03-06T02:24:39.726Z,1009.04
2023-03-06T02:25:08.005Z,1009.04
2023-03-06T02:25:41.637Z,1009.04
2023-03-06T02:26:12.012Z,1009.04
2023-03-06T02:26:45.724Z,1008.94
2023-03-06T02:27:15.756Z,1008.94
2023-03-06T02:27:48.683Z,1008.94
2023-03-06T02:28:19.921Z,1008.94
2023-03-06T02:28:52.723Z,1008.84
2023-03-06T02:29:23.802Z,1008.84
2023-03-06T02:29:56.602Z,1008.74
2023-03-06T02:30:29.127Z,1008.74
2023-03-06T02:31:00.699Z,1008.94
2023-03-06T02:31:31.953Z,1008.84
2023-03-06T02:32:04.925Z,1008.84
2023-03-06T02:32:35.872Z,1008.94
2023-03-06T02:33:08.614Z,1008.94
2023-03-06T02:33:39.848Z,1008.94
2023-03-06T02:34:13.924Z,1008.94
2023-03-06T02:34:43.782Z,1008.84
2023-03-06T02:35:16.890Z,1008.84
2023-03-06T02:35:48.114Z,1009.04
2023-03-06T02:36:21.403Z,1009.04
2023-03-06T02:36:51.984Z,1009.04
2023-03-06T02:37:24.824Z,1009.04
2023-03-06T02:37:56.020Z,1008.84
2023-03-06T02:38:28.636Z,1008.84
2023-03-06T02:38:59.861Z,1008.94
2023-03-06T02:39:32.764Z,1008.94
2023-03-06T02:40:04.188Z,1008.94
2023-03-06T02:40:36.671Z,1008.74
2023-03-06T02:41:07.913Z,1008.74
2023-03-06T02:41:40.960Z,1008.84
2023-03-06T02:42:11.771Z,1008.84
2023-03-06T02:42:44.739Z,1008.84
2023-03-06T02:43:15.978Z,1008.84
2023-03-06T02:43:48.569Z,1008.74
2023-03-06T02:44:19.907Z,1008.74
2023-03-06T02:44:52.794Z,1008.74
2023-03-06T02:45:24.862Z,1008.74
2023-03-06T02:45:57.934Z,1008.74
2023-03-06T02:46:27.983Z,1008.74
2023-03-06T02:47:00.820Z,1008.63
2023-03-06T02:47:31.871Z,1008.53
2023-03-06T02:48:04.632Z,1008.53
2023-03-06T02:48:35.864Z,1008.84
2023-03-06T02:49:08.618Z,1008.84
2023-03-06T02:49:39.859Z,1008.74
2023-03-06T02:50:12.978Z,1008.74
2023-03-06T02:50:43.950Z,1008.74
2023-03-06T02:51:16.589Z,1008.74
2023-03-06T02:51:47.805Z,1008.94
2023-03-06T02:52:20.742Z,1008.94
2023-03-06T02:52:51.753Z,1008.53
2023-03-06T02:53:24.809Z,1008.53
2023-03-06T02:53:55.890Z,1008.74
2023-03-06T02:54:43.998Z,1008.74
2023-03-06T02:55:16.064Z,1008.74
2023-03-06T02:55:48.637Z,1008.74
2023-03-06T02:56:19.838Z,1008.74
2023-03-06T02:56:59.653Z,1008.74
2023-03-06T02:57:23.803Z,1008.74
2023-03-06T02:57:55.873Z,1008.74
2023-03-06T02:58:27.924Z,1008.74
2023-03-06T02:58:59.923Z,1008.63
2023-03-06T02:59:31.926Z,1008.74
2023-03-06T03:00:05.266Z,1008.74
2023-03-06T03:00:36.016Z,1008.74
2023-03-06T03:01:07.815Z,1008.74
2023-03-06T03:01:40.683Z,1008.63
2023-03-06T03:02:12.001Z,1008.63
2023-03-06T03:02:44.659Z,1008.53
2023-03-06T03:03:15.910Z,1008.53
2023-03-06T03:03:48.599Z,1008.74
2023-03-06T03:04:19.977Z,1008.74
2023-03-06T03:04:52.798Z,1008.63
2023-03-06T03:05:24.218Z,1008.63
2023-03-06T03:05:56.738Z,1008.63
2023-03-06T03:06:27.811Z,1008.63
2023-03-06T03:07:00.910Z,1008.53
2023-03-06T03:07:31.906Z,1008.43
2023-03-06T03:08:04.807Z,1008.43
2023-03-06T03:08:35.756Z,1008.53
2023-03-06T03:09:13.417Z,1008.53
2023-03-06T03:09:40.022Z,1008.33
2023-03-06T03:10:12.089Z,1008.33
2023-03-06T03:10:44.649Z,1008.53
2023-03-06T03:11:15.930Z,1008.53
2023-03-06T03:11:48.841Z,1008.53
2023-03-06T03:12:19.779Z,1008.53
2023-03-06T03:12:52.795Z,1008.53
2023-03-06T03:13:23.944Z,1008.53
2023-03-06T03:13:56.551Z,1008.63
2023-03-06T03:14:27.888Z,1008.63
2023-03-06T03:15:02.008Z,1008.63
2023-03-06T03:15:32.317Z,1008.53
2023-03-06T03:16:04.783Z,1008.53
2023-03-06T03:16:38.168Z,1008.53
2023-03-06T03:17:08.761Z,1008.53
2023-03-06T03:17:39.847Z,1008.74
2023-03-06T03:18:12.669Z,1008.74
2023-03-06T03:18:43.918Z,1008.74
2023-03-06T03:19:16.708Z,1008.74
2023-03-06T03:19:47.857Z,1008.53
2023-03-06T03:20:20.858Z,1008.53
2023-03-06T03:20:51.942Z,1008.33
2023-03-06T03:21:24.574Z,1008.33
2023-03-06T03:21:55.800Z,1008.33
2023-03-06T03:22:28.761Z,1008.33
2023-03-06T03:22:59.936Z,1008.33
2023-03-06T03:23:32.636Z,1008.33
2023-03-06T03:24:03.800Z,1008.33
2023-03-06T03:24:36.796Z,1008.33
2023-03-06T03:25:08.019Z,1008.33
2023-03-06T03:25:43.514Z,1008.43
2023-03-06T03:26:11.837Z,1008.43
2023-03-06T03:26:44.644Z,1008.53
2023-03-06T03:27:15.801Z,1008.53
2023-03-06T03:27:48.857Z,1008.43
2023-03-06T03:28:19.996Z,1008.43
2023-03-06T03:28:52.505Z,1008.43
2023-03-06T03:29:23.788Z,1008.43
2023-03-06T03:29:56.689Z,1008.43
2023-03-06T03:30:29.131Z,1008.43
2023-03-06T03:31:01.718Z,1008.43
2023-03-06T03:31:32.066Z,1008.53
2023-03-06T03:32:04.926Z,1008.53
2023-03-06T03:32:35.816Z,1008.43
2023-03-06T03:33:08.740Z,1008.43
2023-03-06T03:33:40.004Z,1008.43
2023-03-06T03:34:12.780Z,1008.43
2023-03-06T03:34:43.792Z,1008.43
2023-03-06T03:35:19.040Z,1008.43
2023-03-06T03:35:48.019Z,1008.33
2023-03-06T03:36:35.949Z,1008.33
2023-03-06T03:37:07.808Z,1008.33
2023-03-06T03:37:39.864Z,1008.33
2023-03-06T03:38:12.466Z,1008.33
2023-03-06T03:38:43.968Z,1008.33
2023-03-06T03:39:16.586Z,1008.33
2023-03-06T03:39:47.912Z,1008.33
2023-03-06T03:40:21.171Z,1008.33
2023-03-06T03:40:51.792Z,1008.33
2023-03-06T03:41:32.981Z,1008.33
2023-03-06T03:41:55.931Z,1008.43
2023-03-06T03:42:27.921Z,1008.43
2023-03-06T03:42:59.859Z,1008.43
2023-03-06T03:43:31.885Z,1008.23
2023-03-06T03:44:03.909Z,1008.23
2023-03-06T03:44:35.850Z,1008.23
2023-03-06T03:45:09.655Z,1008.23
2023-03-06T03:45:39.981Z,1008.33
2023-03-06T03:46:12.764Z,1008.33
2023-03-06T03:46:43.841Z,1008.63
2023-03-06T03:47:16.581Z,1008.63
2023-03-06T03:47:47.858Z,1008.53
2023-03-06T03:48:20.765Z,1008.53
2023-03-06T03:48:51.926Z,1008.53
2023-03-06T03:49:25.850Z,1008.53
2023-03-06T03:49:55.889Z,1008.43
2023-03-06T03:50:28.986Z,1008.43
2023-03-06T03:50:59.937Z,1008.53
2023-03-06T03:51:32.810Z,1008.23
2023-03-06T03:52:03.814Z,1008.23
2023-03-06T03:52:39.827Z,1008.23
2023-03-06T03:53:07.894Z,1008.23
2023-03-06T03:53:40.811Z,1008.23
2023-03-06T03:54:11.770Z,1008.23
2023-03-06T03:54:44.601Z,1008.13
2023-03-06T03:55:16.243Z,1008.13
2023-03-06T03:55:49.567Z,1008.13
2023-03-06T03:56:19.801Z,1008.13
2023-03-06T03:56:52.798Z,1008.23
2023-03-06T03:57:23.953Z,1008.23
2023-03-06T03:57:56.555Z,1008.13
2023-03-06T03:58:27.819Z,1008.13
2023-03-06T03:59:01.710Z,1008.02
2023-03-06T03:59:31.856Z,1008.02
2023-03-06T04:00:06.172Z,1008.02
2023-03-06T04:00:36.034Z,1008.23
2023-03-06T04:01:08.837Z,1008.23
2023-03-06T04:01:39.969Z,1008.02
2023-03-06T04:02:12.770Z,1008.02
2023-03-06T04:02:43.962Z,1008.13
2023-03-06T04:03:16.494Z,1008.13
2023-03-06T04:03:47.879Z,1008.13
2023-03-06T04:04:20.652Z,1008.13
2023-03-06T04:04:51.956Z,1008.02
2023-03-06T04:05:24.942Z,1008.02
2023-03-06T04:05:55.968Z,1008.02
2023-03-06T04:06:30.693Z,1008.02
2023-03-06T04:06:59.864Z,1008.13
2023-03-06T04:07:32.844Z,1008.02
2023-03-06T04:08:03.951Z,1008.02
2023-03-06T04:08:36.743Z,1007.92
2023-03-06T04:09:07.883Z,1007.92
2023-03-06T04:09:43.675Z,1008.02
2023-03-06T04:10:12.445Z,1008.02
2023-03-06T04:10:44.503Z,1007.82
2023-03-06T04:11:15.841Z,1007.82
2023-03-06T04:11:48.701Z,1007.82
2023-03-06T04:12:19.954Z,1007.82
2023-03-06T04:12:52.643Z,1007.82
2023-03-06T04:13:23.916Z,1007.82
2023-03-06T04:13:57.769Z,1008.02
2023-03-06T04:14:27.769Z,1008.02
2023-03-06T04:15:01.906Z,1007.92
2023-03-06T04:15:32.055Z,1007.92
2023-03-06T04:16:04.540Z,1007.92
2023-03-06T04:16:35.944Z,1007.82
2023-03-06T04:17:08.792Z,1007.82
2023-03-06T04:17:40.002Z,1008.13
2023-03-06T04:18:12.691Z,1008.13
2023-03-06T04:18:43.966Z,1007.92
2023-03-06T04:19:17.826Z,1007.92
2023-03-06T04:19:48.111Z,1007.92
2023-03-06T04:20:21.002Z,1007.92
2023-03-06T04:20:51.870Z,1008.02
2023-03-06T04:21:24.863Z,1008.02
2023-03-06T04:21:55.834Z,1008.02
2023-03-06T04:22:28.783Z,1008.02
2023-03-06T04:22:59.921Z,1007.92
2023-03-06T04:23:32.696Z,1007.92
2023-03-06T04:24:03.894Z,1007.92
2023-03-06T04:24:36.725Z,1008.13
2023-03-06T04:25:08.281Z,1008.13
2023-03-06T04:25:40.546Z,1008.13
2023-03-06T04:26:11.879Z,1008.13
2023-03-06T04:26:44.778Z,1008.13
2023-03-06T04:27:15.995Z,1008.13
2023-03-06T04:27:48.699Z,1008.02
2023-03-06T04:28:19.820Z,1008.02
2023-03-06T04:28:52.659Z,1007.82
2023-03-06T04:29:23.762Z,1007.82
2023-03-06T04:29:56.563Z,1007.82
2023-03-06T04:30:28.981Z,1007.82
2023-03-06T04:31:00.688Z,1007.92
2023-03-06T04:31:31.926Z,1007.82
2023-03-06T04:32:04.824Z,1007.82
2023-03-06T04:32:35.876Z,1007.72
2023-03-06T04:33:09.367Z,1007.72
2023-03-06T04:33:40.038Z,1008.02
2023-03-06T04:34:12.735Z,1008.02
2023-03-06T04:34:43.823Z,1008.02
2023-03-06T04:35:17.898Z,1008.02
2023-03-06T04:35:47.880Z,1008.02
2023-03-06T04:36:20.698Z,1008.02
2023-03-06T04:36:51.953Z,1008.02
2023-03-06T04:37:24.819Z,1008.02
2023-03-06T04:37:55.817Z,1007.82
2023-03-06T04:38:28.705Z,1007.82
2023-03-06T04:38:59.988Z,1007.82
2023-03-06T04:39:32.456Z,1007.72
2023-03-06T04:40:04.446Z,1007.72
2023-03-06T04:40:37.187Z,1007.82
2023-03-06T04:41:07.972Z,1007.82
2023-03-06T04:41:40.590Z,1007.92
2023-03-06T04:42:11.840Z,1007.92
2023-03-06T04:42:57.266Z,1007.82
2023-03-06T04:43:15.842Z,1007.82
2023-03-06T04:43:47.828Z,1007.82
2023-03-06T04:44:20.408Z,1007.82
2023-03-06T04:44:51.963Z,1007.92
2023-03-06T04:45:25.753Z,1007.92
2023-03-06T04:45:56.050Z,1007.92
2023-03-06T04:46:28.653Z,1007.92
2023-03-06T04:46:59.852Z,1007.92
2023-03-06T04:47:32.703Z,1007.92
2023-03-06T04:48:03.968Z,1007.92
2023-03-06T04:48:36.763Z,1007.92
2023-03-06T04:49:07.788Z,1007.92
2023-03-06T04:49:40.801Z,1007.72
2023-03-06T04:50:12.296Z,1007.72
2023-03-06T04:50:44.547Z,1007.72
2023-03-06T04:51:15.822Z,1007.72
2023-03-06T04:51:48.715Z,1007.72
2023-03-06T04:52:20.094Z,1007.72
2023-03-06T04:52:53.671Z,1007.82
2023-03-06T04:53:23.889Z,1007.82
2023-03-06T04:53:56.593Z,1007.72
2023-03-06T04:54:27.817Z,1007.72
2023-03-06T04:55:03.825Z,1007.72
2023-03-06T04:55:32.021Z,1007.92
2023-03-06T04:56:10.495Z,1007.92
2023-03-06T04:56:35.836Z,1007.52
2023-03-06T04:57:07.972Z,1007.52
2023-03-06T04:57:40.921Z,1007.72
2023-03-06T04:58:11.779Z,1007.72
2023-03-06T04:58:44.595Z,1007.92
2023-03-06T04:59:15.904Z,1007.92
2023-03-06T04:59:48.848Z,1007.62
2023-03-06T05:00:20.946Z,1007.62
2023-03-06T05:00:52.935Z,1007.72
2023-03-06T05:01:24.034Z,1007.72
2023-03-06T05:01:56.598Z,1007.72
2023-03-06T05:02:27.882Z,1007.72
2023-03-06T05:03:00.831Z,1007.82
2023-03-06T05:03:32.001Z,1007.62
2023-03-06T05:04:04.583Z,1007.62
2023-03-06T05:04:35.915Z,1007.62
2023-03-06T05:05:09.012Z,1007.62
2023-03-06T05:05:39.820Z,1007.62
2023-03-06T05:06:14.702Z,1007.62
2023-03-06T05:06:44.004Z,1007.62
2023-03-06T05:07:16.926Z,1007.62
2023-03-06T05:07:47.889Z,1007.62
2023-03-06T05:08:20.636Z,1007.62
2023-03-06T05:08:51.884Z,1007.72
2023-03-06T05:09:27.505Z,1007.72
2023-03-06T05:09:55.969Z,1007.62
2023-03-06T05:10:29.414Z,1007.62
2023-03-06T05:11:00.197Z,1007.42
2023-03-06T05:11:32.733Z,1007.72
2023-03-06T05:12:03.879Z,1007.72
2023-03-06T05:12:38.804Z,1007.82
2023-03-06T05:13:07.964Z,1007.82
2023-03-06T05:13:40.826Z,1007.62
2023-03-06T05:14:11.946Z,1007.62
2023-03-06T05:14:46.666Z,1007.31
2023-03-06T05:15:16.789Z,1007.31
2023-03-06T05:15:48.910Z,1007.62
2023-03-06T05:16:20.126Z,1007.62
2023-03-06T05:16:52.684Z,1007.62
2023-03-06T05:17:23.861Z,1007.62
2023-03-06T05:17:56.812Z,1007.62
2023-03-06T05:18:28.048Z,1007.62
2023-03-06T05:19:00.910Z,1007.62
2023-03-06T05:19:31.892Z,1007.72
2023-03-06T05:20:05.019Z,1007.72
2023-03-06T05:20:35.688Z,1007.62
2023-03-06T05:21:08.810Z,1007.62
2023-03-06T05:21:40.071Z,1007.62
2023-03-06T05:22:12.786Z,1007.62
2023-03-06T05:22:43.875Z,1007.82
2023-03-06T05:23:16.834Z,1007.82
2023-03-06T05:23:47.911Z,1007.62
2023-03-06T05:24:23.575Z,1007.62
2023-03-06T05:24:51.916Z,1007.62
2023-03-06T05:25:30.041Z,1007.62
2023-03-06T05:25:55.885Z,1007.72
2023-03-06T05:26:27.898Z,1007.72
2023-03-06T05:27:00.770Z,1007.62
2023-03-06T05:27:32.028Z,1007.62
2023-03-06T05:28:05.605Z,1007.62
2023-03-06T05:28:35.959Z,1007.72
2023-03-06T05:29:08.705Z,1007.72
2023-03-06T05:29:39.995Z,1007.72
2023-03-06T05:30:13.576Z,1007.72
2023-03-06T05:30:44.159Z,1007.52
2023-03-06T05:31:18.150Z,1007.52
2023-03-06T05:31:47.948Z,1007.72
2023-03-06T05:32:04.276Z,1007.72
2023-03-06T05:32:36.059Z,1007.52
2023-03-06T05:33:07.980Z,1007.52
2023-03-06T05:33:40.116Z,1007.52
2023-03-06T05:34:12.127Z,1007.52
2023-03-06T05:34:43.956Z,1007.52
2023-03-06T05:35:16.325Z,1007.52
2023-03-06T05:35:48.120Z,1007.52
2023-03-06T05:36:19.917Z,1007.52
2023-03-06T05:36:52.884Z,1007.52
2023-03-06T05:37:24.044Z,1007.52
2023-03-06T05:37:56.876Z,1007.72
2023-03-06T05:38:28.093Z,1007.72
2023-03-06T05:39:00.778Z,1007.52
2023-03-06T05:39:32.060Z,1007.52
2023-03-06T05:40:04.903Z,1007.52
2023-03-06T05:40:35.992Z,1007.42
2023-03-06T05:41:08.923Z,1007.42
2023-03-06T05:41:39.879Z,1007.52
2023-03-06T05:42:12.770Z,1007.52
2023-03-06T05:42:43.973Z,1007.52
2023-03-06T05:43:22.316Z,1007.52
2023-03-06T05:43:47.804Z,1007.21
2023-03-06T05:44:19.964Z,1007.21
2023-03-06T05:44:57.000Z,1007.62
2023-03-06T05:45:24.852Z,1007.62
2023-03-06T05:45:56.087Z,1007.31
2023-03-06T05:46:27.973Z,1007.31
2023-03-06T05:47:00.178Z,1007.21
2023-03-06T05:47:31.958Z,1007.42
2023-03-06T05:48:03.898Z,1007.42
2023-03-06T05:48:35.977Z,1007.42
2023-03-06T05:49:07.910Z,1007.42
2023-03-06T05:49:40.747Z,1007.31
2023-03-06T05:50:12.190Z,1007.31
2023-03-06T05:50:44.888Z,1007.42
2023-03-06T05:51:15.908Z,1007.42
2023-03-06T05:51:32.114Z,1007.62
2023-03-06T05:52:03.887Z,1007.62
2023-03-06T05:52:35.810Z,1007.62
2023-03-06T05:53:07.938Z,1007.62
2023-03-06T05:53:40.142Z,1007.31
2023-03-06T05:54:11.903Z,1007.31
2023-03-06T05:54:43.999Z,1007.31
2023-03-06T05:55:16.263Z,1007.31
2023-03-06T05:55:47.719Z,1007.42
2023-03-06T05:56:22.909Z,1007.42
2023-03-06T05:56:52.074Z,1007.31
2023-03-06T05:57:29.634Z,1007.31
2023-03-06T05:57:55.995Z,1007.52
2023-03-06T05:58:27.989Z,1007.52
2023-03-06T05:58:59.988Z,1007.52
2023-03-06T05:59:31.877Z,1007.42
2023-03-06T06:00:06.052Z,1007.42
2023-03-06T06:00:35.922Z,1007.31
2023-03-06T06:01:08.873Z,1007.31
2023-03-06T06:01:40.115Z,1007.21
2023-03-06T06:02:12.809Z,1007.21
2023-03-06T06:02:44.029Z,1007.11
2023-03-06T06:03:18.812Z,1007.11
2023-03-06T06:03:48.261Z,1007.42
2023-03-06T06:04:22.033Z,1007.42
2023-03-06T06:04:52.048Z,1007.11
2023-03-06T06:05:25.344Z,1007.11
2023-03-06T06:05:56.249Z,1007.42
2023-03-06T06:06:28.966Z,1007.42
2023-03-06T06:07:00.167Z,1007.52
2023-03-06T06:07:34.859Z,1007.42
2023-03-06T06:08:04.195Z,1007.42
2023-03-06T06:08:36.858Z,1007.42
2023-03-06T06:09:08.146Z,1007.42
2023-03-06T06:09:40.966Z,1007.11
2023-03-06T06:10:12.522Z,1007.11
2023-03-06T06:10:44.949Z,1007.42
2023-03-06T06:11:16.120Z,1007.42
2023-03-06T06:11:49.249Z,1007.31
2023-03-06T06:12:20.126Z,1007.31
2023-03-06T06:12:55.831Z,1007.52
2023-03-06T06:13:24.074Z,1007.52
2023-03-06T06:13:56.942Z,1007.42
2023-03-06T06:14:28.081Z,1007.42
2023-03-06T06:15:03.307Z,1007.21
2023-03-06T06:15:32.479Z,1007.42
2023-03-06T06:16:04.958Z,1007.42
2023-03-06T06:16:36.243Z,1007.42
2023-03-06T06:17:09.135Z,1007.42
2023-03-06T06:17:40.238Z,1007.11
2023-03-06T06:18:12.892Z,1007.11
2023-03-06T06:18:44.156Z,1007.42
2023-03-06T06:19:17.266Z,1007.42
2023-03-06T06:19:48.041Z,1007.31
2023-03-06T06:20:04.651Z,1007.31
2023-03-06T06:20:36.036Z,1007.31
2023-03-06T06:21:08.149Z,1007.31
2023-03-06T06:21:40.205Z,1007.31
2023-03-06T06:22:12.081Z,1007.31
2023-03-06T06:22:45.160Z,1007.21
2023-03-06T06:23:16.175Z,1007.21
2023-03-06T06:23:49.146Z,1007.31
2023-03-06T06:24:20.116Z,1007.31
2023-03-06T06:24:53.158Z,1007.21
2023-03-06T06:25:24.590Z,1007.21
2023-03-06T06:25:56.990Z,1007.52